createdAt,value
2016-07-01T00:00:04.587Z,0
2016-07-01T00:01:03.992Z,0
2016-07-01T00:02:05.189Z,0
2016-07-01T00:03:04.573Z,0
2016-07-01T00:04:04.550Z,0
2016-07-01T00:05:05.144Z,0
2016-07-01T00:06:05.146Z,0
2016-07-01T00:07:03.893Z,0
2016-07-01T00:08:04.549Z,0
2016-07-01T00:09:05.095Z,0
2016-07-01T00:10:04.275Z,0
2016-07-01T00:11:04.463Z,0
2016-07-01T00:12:05.058Z,0
2016-07-01T00:13:05.098Z,0
2016-07-01T00:14:03.811Z,0
2016-07-01T00:15:03.812Z,0
2016-07-01T00:16:04.425Z,0
2016-07-01T00:17:04.400Z,0
2016-07-01T00:18:04.377Z,0
2016-07-01T00:19:04.371Z,0
2016-07-01T00:20:04.977Z,0
2016-07-01T00:21:04.949Z,0
2016-07-01T00:22:04.337Z,0
2016-07-01T00:23:03.716Z,0
2016-07-01T00:24:03.708Z,0
2016-07-01T00:25:04.901Z,0
2016-07-01T00:26:04.279Z,0
2016-07-01T00:27:04.878Z,0
2016-07-01T00:28:04.266Z,0
2016-07-01T00:29:03.629Z,0
2016-07-01T00:30:03.625Z,0
2016-07-01T00:31:04.835Z,0
2016-07-01T00:32:05.467Z,0
2016-07-01T00:33:04.818Z,0
2016-07-01T00:34:05.423Z,0
2016-07-01T00:35:03.571Z,0
2016-07-01T00:36:04.147Z,0
2016-07-01T00:37:04.805Z,0
2016-07-01T00:38:04.156Z,0
2016-07-01T00:39:05.366Z,0
2016-07-01T00:40:04.103Z,0
2016-07-01T00:41:04.714Z,0
2016-07-01T00:42:04.710Z,0
2016-07-01T00:43:04.075Z,0
2016-07-01T00:44:04.674Z,0
2016-07-01T00:45:04.664Z,0
2016-07-01T00:46:04.027Z,0
2016-07-01T00:47:04.026Z,0
2016-07-01T00:48:04.649Z,0
2016-07-01T00:49:03.398Z,0
2016-07-01T00:50:04.039Z,0
2016-07-01T00:51:03.981Z,0
2016-07-01T00:52:04.583Z,0
2016-07-01T00:53:05.176Z,0
2016-07-01T00:54:04.573Z,0
2016-07-01T00:55:03.933Z,0
2016-07-01T00:56:04.535Z,0
2016-07-01T00:57:03.954Z,0
2016-07-01T00:58:03.292Z,0
2016-07-01T00:59:03.294Z,0
2016-07-01T01:00:03.878Z,0
2016-07-01T01:01:05.128Z,0
2016-07-01T01:02:03.873Z,0
2016-07-01T01:03:03.857Z,0
2016-07-01T01:04:03.824Z,0
2016-07-01T01:05:05.040Z,0
2016-07-01T01:06:05.046Z,0
2016-07-01T01:07:03.809Z,0
2016-07-01T01:08:03.783Z,0
2016-07-01T01:09:05.024Z,0
2016-07-01T01:10:04.386Z,0
2016-07-01T01:11:03.760Z,0
2016-07-01T01:12:04.338Z,0
2016-07-01T01:13:03.732Z,0
2016-07-01T01:14:04.960Z,0
2016-07-01T01:15:04.332Z,0
2016-07-01T01:16:04.304Z,0
2016-07-01T01:17:04.276Z,0
2016-07-01T01:18:03.080Z,0
2016-07-01T01:19:03.658Z,0
2016-07-01T01:20:04.247Z,0
2016-07-01T01:21:04.878Z,0
2016-07-01T01:22:03.603Z,0
2016-07-01T01:23:03.594Z,0
2016-07-01T01:24:02.973Z,0
2016-07-01T01:25:04.198Z,0
2016-07-01T01:26:02.957Z,0
2016-07-01T01:27:03.574Z,0
2016-07-01T01:28:04.767Z,0
2016-07-01T01:29:04.138Z,0
2016-07-01T01:30:03.537Z,0
2016-07-01T01:31:04.119Z,0
2016-07-01T01:32:04.113Z,0
2016-07-01T01:33:04.713Z,0
2016-07-01T01:34:03.475Z,0
2016-07-01T01:35:04.067Z,0
2016-07-01T01:36:02.818Z,0
2016-07-01T01:37:04.050Z,0
2016-07-01T01:38:03.413Z,0
2016-07-01T01:39:03.411Z,0
2016-07-01T01:40:03.391Z,0
2016-07-01T01:41:03.390Z,0
2016-07-01T01:42:03.385Z,0
2016-07-01T01:43:04.597Z,0
2016-07-01T01:44:04.594Z,0
2016-07-01T01:45:04.585Z,0
2016-07-01T01:46:04.558Z,0
2016-07-01T01:47:03.968Z,0
2016-07-01T01:48:03.328Z,0
2016-07-01T01:49:03.902Z,0
2016-07-01T01:50:03.293Z,0
2016-07-01T01:51:03.863Z,0
2016-07-01T01:52:03.873Z,0
2016-07-01T01:53:03.874Z,0
2016-07-01T01:54:04.486Z,0
2016-07-01T01:55:03.225Z,0
2016-07-01T01:56:03.229Z,0
2016-07-01T01:57:04.449Z,0
2016-07-01T01:58:03.180Z,0
2016-07-01T01:59:02.589Z,0
2016-07-01T02:00:03.797Z,0
2016-07-01T02:01:02.543Z,0
2016-07-01T02:02:03.146Z,0
2016-07-01T02:03:04.374Z,0
2016-07-01T02:04:03.734Z,0
2016-07-01T02:05:03.118Z,0
2016-07-01T02:06:03.705Z,0
2016-07-01T02:07:03.708Z,0
2016-07-01T02:08:03.083Z,0
2016-07-01T02:09:03.057Z,0
2016-07-01T02:10:04.064Z,0
2016-07-01T02:11:03.037Z,0
2016-07-01T02:12:03.028Z,0
2016-07-01T02:13:03.008Z,0
2016-07-01T02:14:03.616Z,0
2016-07-01T02:15:02.983Z,0
2016-07-01T02:16:02.979Z,0
2016-07-01T02:17:03.580Z,0
2016-07-01T02:18:02.348Z,0
2016-07-01T02:19:02.940Z,0
2016-07-01T02:20:04.163Z,0
2016-07-01T02:21:02.926Z,0
2016-07-01T02:22:04.145Z,0
2016-07-01T02:23:02.924Z,0
2016-07-01T02:24:03.517Z,0
2016-07-01T02:25:03.484Z,0
2016-07-01T02:26:02.877Z,0
2016-07-01T02:27:03.449Z,0
2016-07-01T02:28:02.854Z,0
2016-07-01T02:29:04.070Z,0
2016-07-01T02:31:04.094Z,0
2016-07-01T02:32:04.033Z,0
2016-07-01T02:33:02.790Z,0
2016-07-01T02:34:03.368Z,0
2016-07-01T02:35:03.375Z,0
2016-07-01T02:36:02.805Z,0
2016-07-01T02:37:02.727Z,0
2016-07-01T02:38:02.783Z,0
2016-07-01T02:39:02.712Z,4
2016-07-01T02:40:02.693Z,4
2016-07-01T02:41:02.685Z,4
2016-07-01T02:42:02.069Z,4
2016-07-01T02:43:02.668Z,0
2016-07-01T02:44:03.278Z,4
2016-07-01T02:45:02.650Z,4
2016-07-01T02:46:03.253Z,4
2016-07-01T02:47:03.249Z,4
2016-07-01T02:48:02.631Z,4
2016-07-01T02:49:02.592Z,8
2016-07-01T02:50:03.191Z,8
2016-07-01T02:51:01.955Z,8
2016-07-01T02:52:03.207Z,8
2016-07-01T02:53:03.782Z,12
2016-07-01T02:54:03.178Z,12
2016-07-01T02:55:01.917Z,12
2016-07-01T02:56:03.744Z,16
2016-07-01T02:57:03.103Z,20
2016-07-01T02:58:02.475Z,20
2016-07-01T02:59:03.686Z,20
2016-07-01T03:00:03.094Z,24
2016-07-01T03:01:01.855Z,28
2016-07-01T03:02:03.039Z,32
2016-07-01T03:03:01.815Z,32
2016-07-01T03:04:02.417Z,36
2016-07-01T03:05:01.798Z,40
2016-07-01T03:06:03.240Z,44
2016-07-01T03:07:03.627Z,48
2016-07-01T03:08:03.602Z,52
2016-07-01T03:09:01.764Z,56
2016-07-01T03:10:02.355Z,56
2016-07-01T03:11:02.946Z,60
2016-07-01T03:12:02.961Z,68
2016-07-01T03:13:02.327Z,76
2016-07-01T03:14:03.551Z,76
2016-07-01T03:15:02.298Z,84
2016-07-01T03:16:03.548Z,88
2016-07-01T03:17:02.915Z,92
2016-07-01T03:18:03.483Z,96
2016-07-01T03:19:02.870Z,100
2016-07-01T03:20:02.883Z,108
2016-07-01T03:21:01.626Z,116
2016-07-01T03:22:02.240Z,124
2016-07-01T03:23:02.211Z,128
2016-07-01T03:24:01.593Z,132
2016-07-01T03:25:02.794Z,140
2016-07-01T03:26:03.404Z,148
2016-07-01T03:27:02.170Z,152
2016-07-01T03:28:02.150Z,152
2016-07-01T03:29:03.367Z,160
2016-07-01T03:30:02.123Z,160
2016-07-01T03:31:02.713Z,168
2016-07-01T03:32:03.319Z,172
2016-07-01T03:33:02.090Z,180
2016-07-01T03:34:02.705Z,196
2016-07-01T03:35:02.050Z,204
2016-07-01T03:36:01.457Z,220
2016-07-01T03:37:02.032Z,236
2016-07-01T03:38:02.043Z,248
2016-07-01T03:39:02.688Z,260
2016-07-01T03:40:02.645Z,276
2016-07-01T03:41:01.993Z,284
2016-07-01T03:42:01.995Z,300
2016-07-01T03:43:01.971Z,316
2016-07-01T03:44:02.575Z,332
2016-07-01T03:45:02.552Z,352
2016-07-01T03:46:01.317Z,368
2016-07-01T03:47:01.910Z,384
2016-07-01T03:48:01.914Z,404
2016-07-01T03:49:01.285Z,412
2016-07-01T03:50:02.491Z,428
2016-07-01T03:51:01.882Z,444
2016-07-01T03:52:01.239Z,468
2016-07-01T03:53:01.887Z,500
2016-07-01T03:54:02.445Z,548
2016-07-01T03:55:02.431Z,588
2016-07-01T03:56:01.837Z,612
2016-07-01T03:57:01.823Z,620
2016-07-01T03:58:02.433Z,624
2016-07-01T03:59:02.422Z,648
2016-07-01T04:00:03.007Z,692
2016-07-01T04:01:03.005Z,732
2016-07-01T04:02:01.136Z,772
2016-07-01T04:03:01.109Z,812
2016-07-01T04:04:01.113Z,824
2016-07-01T04:05:02.327Z,844
2016-07-01T04:06:02.928Z,860
2016-07-01T04:07:01.707Z,864
2016-07-01T04:08:01.694Z,884
2016-07-01T04:09:01.054Z,920
2016-07-01T04:10:03.484Z,976
2016-07-01T04:11:02.240Z,1020
2016-07-01T04:12:02.254Z,1080
2016-07-01T04:13:01.626Z,1124
2016-07-01T04:14:02.230Z,1132
2016-07-01T04:15:00.975Z,1132
2016-07-01T04:16:01.599Z,1120
2016-07-01T04:17:02.858Z,1116
2016-07-01T04:18:01.556Z,1136
2016-07-01T04:19:01.568Z,1172
2016-07-01T04:20:02.771Z,1204
2016-07-01T04:21:01.543Z,1228
2016-07-01T04:22:02.119Z,1244
2016-07-01T04:23:01.499Z,1264
2016-07-01T04:24:02.735Z,1280
2016-07-01T04:25:00.895Z,1260
2016-07-01T04:26:00.876Z,1240
2016-07-01T04:27:02.061Z,1236
2016-07-01T04:28:01.439Z,1264
2016-07-01T04:29:02.055Z,1260
2016-07-01T04:30:01.450Z,1244
2016-07-01T04:31:01.429Z,1228
2016-07-01T04:32:02.611Z,1216
2016-07-01T04:33:02.014Z,1188
2016-07-01T04:34:01.391Z,1168
2016-07-01T04:35:02.585Z,1184
2016-07-01T04:36:01.979Z,1236
2016-07-01T04:37:02.572Z,1288
2016-07-01T04:38:01.324Z,1372
2016-07-01T04:39:01.960Z,1420
2016-07-01T04:40:01.308Z,1352
2016-07-01T04:41:01.298Z,1352
2016-07-01T04:42:01.284Z,1348
2016-07-01T04:43:01.292Z,1324
2016-07-01T04:44:01.871Z,1344
2016-07-01T04:45:01.263Z,1384
2016-07-01T04:46:02.478Z,1440
2016-07-01T04:47:01.837Z,1484
2016-07-01T04:48:01.851Z,1564
2016-07-01T04:49:02.431Z,1600
2016-07-01T04:50:01.811Z,1636
2016-07-01T04:51:01.209Z,1740
2016-07-01T04:52:02.400Z,1796
2016-07-01T04:53:01.166Z,1644
2016-07-01T04:54:01.763Z,1584
2016-07-01T04:55:01.757Z,1668
2016-07-01T04:56:00.516Z,1868
2016-07-01T04:57:01.159Z,2056
2016-07-01T04:58:01.753Z,2076
2016-07-01T04:59:01.707Z,1980
2016-07-01T05:00:02.319Z,1968
2016-07-01T05:01:00.463Z,2128
2016-07-01T05:02:02.299Z,2284
2016-07-01T05:03:01.673Z,2288
2016-07-01T05:04:01.048Z,2308
2016-07-01T05:05:01.646Z,2312
2016-07-01T05:06:01.640Z,2316
2016-07-01T05:07:02.245Z,2176
2016-07-01T05:08:01.011Z,2144
2016-07-01T05:09:00.986Z,2300
2016-07-01T05:10:01.601Z,2432
2016-07-01T05:11:02.180Z,2308
2016-07-01T05:12:01.573Z,2304
2016-07-01T05:13:00.961Z,2416
2016-07-01T05:14:01.550Z,2680
2016-07-01T05:15:00.919Z,2800
2016-07-01T05:16:00.907Z,2744
2016-07-01T05:17:01.529Z,2500
2016-07-01T05:18:01.489Z,2180
2016-07-01T05:19:01.090Z,1968
2016-07-01T05:20:00.878Z,1816
2016-07-01T05:21:00.299Z,1728
2016-07-01T05:22:00.829Z,1760
2016-07-01T05:23:01.678Z,1672
2016-07-01T05:24:02.047Z,1568
2016-07-01T05:25:00.826Z,1496
2016-07-01T05:26:00.784Z,1348
2016-07-01T05:27:01.398Z,1240
2016-07-01T05:28:00.154Z,1304
2016-07-01T05:29:01.388Z,1332
2016-07-01T05:30:00.129Z,1324
2016-07-01T05:31:00.767Z,1436
2016-07-01T05:32:00.127Z,1668
2016-07-01T05:33:01.962Z,1740
2016-07-01T05:34:00.693Z,1700
2016-07-01T05:35:00.729Z,1712
2016-07-01T05:36:01.310Z,1728
2016-07-01T05:37:01.298Z,1780
2016-07-01T05:38:00.688Z,1888
2016-07-01T05:39:00.669Z,2048
2016-07-01T05:40:00.648Z,2104
2016-07-01T05:41:01.244Z,2088
2016-07-01T05:42:01.238Z,2012
2016-07-01T05:43:00.619Z,1992
2016-07-01T05:43:59.996Z,2152
2016-07-01T05:45:01.210Z,2316
2016-07-01T05:46:01.814Z,2452
2016-07-01T05:47:01.799Z,2604
2016-07-01T05:47:59.952Z,2764
2016-07-01T05:49:01.171Z,2888
2016-07-01T05:50:00.551Z,2928
2016-07-01T05:51:01.142Z,2964
2016-07-01T05:52:01.146Z,2996
2016-07-01T05:53:01.158Z,2884
2016-07-01T05:54:00.524Z,2784
2016-07-01T05:55:01.104Z,2900
2016-07-01T05:56:01.090Z,2924
2016-07-01T05:57:00.459Z,2780
2016-07-01T05:58:01.052Z,2720
2016-07-01T05:59:00.429Z,2756
2016-07-01T06:00:01.082Z,2764
2016-07-01T06:01:00.429Z,2880
2016-07-01T06:02:01.026Z,2920
2016-07-01T06:03:01.632Z,3008
2016-07-01T06:04:00.390Z,3152
2016-07-01T06:05:00.992Z,3300
2016-07-01T06:06:01.014Z,3460
2016-07-01T06:07:00.976Z,3552
2016-07-01T06:08:00.345Z,3664
2016-07-01T06:09:00.323Z,3428
2016-07-01T06:09:59.703Z,3048
2016-07-01T06:11:00.960Z,2680
2016-07-01T06:12:00.933Z,2492
2016-07-01T06:13:00.315Z,2536
2016-07-01T06:14:01.507Z,2796
2016-07-01T06:15:00.886Z,3112
2016-07-01T06:16:00.532Z,3576
2016-07-01T06:17:01.488Z,4196
2016-07-01T06:18:01.507Z,4520
2016-07-01T06:19:00.854Z,3960
2016-07-01T06:19:59.596Z,3632
2016-07-01T06:21:00.838Z,3504
2016-07-01T06:22:00.811Z,3792
2016-07-01T06:23:01.485Z,4136
2016-07-01T06:24:00.185Z,3804
2016-07-01T06:25:00.774Z,2920
2016-07-01T06:26:00.167Z,2804
2016-07-01T06:27:00.801Z,2784
2016-07-01T06:27:59.512Z,2448
2016-07-01T06:29:00.776Z,2584
2016-07-01T06:30:00.134Z,2496
2016-07-01T06:31:00.710Z,2500
2016-07-01T06:32:01.334Z,2796
2016-07-01T06:33:00.698Z,2988
2016-07-01T06:34:00.701Z,3220
2016-07-01T06:35:00.679Z,3252
2016-07-01T06:35:59.432Z,3476
2016-07-01T06:37:00.054Z,3852
2016-07-01T06:38:00.035Z,4080
2016-07-01T06:39:00.035Z,4640
2016-07-01T06:40:00.630Z,4636
2016-07-01T06:41:00.055Z,4124
2016-07-01T06:42:00.616Z,4148
2016-07-01T06:42:59.977Z,4752
2016-07-01T06:43:59.378Z,5084
2016-07-01T06:44:59.966Z,5232
2016-07-01T06:45:59.958Z,5012
2016-07-01T06:46:59.940Z,4700
2016-07-01T06:47:59.945Z,4416
2016-07-01T06:48:59.950Z,3768
2016-07-01T06:49:59.318Z,3192
2016-07-01T06:50:59.311Z,2348
2016-07-01T06:51:59.288Z,2828
2016-07-01T06:53:00.490Z,3496
2016-07-01T06:54:01.130Z,3392
2016-07-01T06:55:00.686Z,3260
2016-07-01T06:55:59.882Z,2996
2016-07-01T06:56:59.846Z,2444
2016-07-01T06:58:00.439Z,2504
2016-07-01T06:59:00.431Z,2860
2016-07-01T06:59:59.219Z,3572
2016-07-01T07:01:01.019Z,4032
2016-07-01T07:02:00.389Z,4124
2016-07-01T07:02:59.774Z,4608
2016-07-01T07:04:00.366Z,4868
2016-07-01T07:04:59.770Z,4664
2016-07-01T07:05:59.802Z,4172
2016-07-01T07:06:59.743Z,4628
2016-07-01T07:07:59.720Z,5892
2016-07-01T07:09:00.333Z,5736
2016-07-01T07:10:00.336Z,6484
2016-07-01T07:10:59.685Z,6976
2016-07-01T07:11:59.068Z,6780
2016-07-01T07:12:59.681Z,5932
2016-07-01T07:14:00.909Z,4452
2016-07-01T07:15:00.877Z,4332
2016-07-01T07:15:59.039Z,4568
2016-07-01T07:17:00.238Z,4700
2016-07-01T07:18:00.313Z,5604
2016-07-01T07:18:59.618Z,4784
2016-07-01T07:20:00.850Z,4856
2016-07-01T07:21:00.233Z,4296
2016-07-01T07:21:59.591Z,3776
2016-07-01T07:22:59.561Z,2752
2016-07-01T07:23:58.974Z,3068
2016-07-01T07:25:00.772Z,3712
2016-07-01T07:25:59.559Z,3948
2016-07-01T07:27:00.152Z,5120
2016-07-01T07:27:59.542Z,5812
2016-07-01T07:29:00.110Z,6496
2016-07-01T07:29:59.523Z,5624
2016-07-01T07:31:00.109Z,4660
2016-07-01T07:32:00.089Z,5156
2016-07-01T07:33:00.719Z,5564
2016-07-01T07:34:00.084Z,7112
2016-07-01T07:34:58.827Z,7720
2016-07-01T07:35:59.466Z,7172
2016-07-01T07:37:00.051Z,8408
2016-07-01T07:38:00.656Z,8832
2016-07-01T07:38:59.427Z,7724
2016-07-01T07:40:00.038Z,8612
2016-07-01T07:41:00.011Z,8444
2016-07-01T07:42:00.012Z,8456
2016-07-01T07:43:00.026Z,8720
2016-07-01T07:43:58.747Z,9216
2016-07-01T07:44:59.974Z,9708
2016-07-01T07:45:59.360Z,9696
2016-07-01T07:46:59.947Z,8924
2016-07-01T07:47:59.335Z,8396
2016-07-01T07:48:59.952Z,8048
2016-07-01T07:49:59.318Z,8496
2016-07-01T07:50:59.912Z,8864
2016-07-01T07:52:00.525Z,8720
2016-07-01T07:52:59.912Z,8744
2016-07-01T07:53:59.865Z,8240
2016-07-01T07:54:59.251Z,7468
2016-07-01T07:55:59.925Z,7324
2016-07-01T07:56:59.857Z,7904
2016-07-01T07:57:59.243Z,8072
2016-07-01T07:59:00.446Z,7912
2016-07-01T08:00:00.435Z,7788
2016-07-01T08:00:59.204Z,7980
2016-07-01T08:01:59.821Z,8468
2016-07-01T08:02:59.168Z,8524
2016-07-01T08:03:59.263Z,8668
2016-07-01T08:04:59.194Z,8524
2016-07-01T08:05:59.158Z,8920
2016-07-01T08:06:59.776Z,9328
2016-07-01T08:07:59.805Z,9808
2016-07-01T08:08:59.766Z,10344
2016-07-01T08:09:58.530Z,10856
2016-07-01T08:10:58.520Z,11960
2016-07-01T08:11:59.106Z,12128
2016-07-01T08:12:59.717Z,10972
2016-07-01T08:13:59.097Z,9488
2016-07-01T08:14:59.082Z,11892
2016-07-01T08:15:59.707Z,13620
2016-07-01T08:17:00.275Z,15136
2016-07-01T08:17:58.456Z,19616
2016-07-01T08:18:59.651Z,13560
2016-07-01T08:19:59.035Z,17184
2016-07-01T08:20:58.430Z,15692
2016-07-01T08:22:00.401Z,16960
2016-07-01T08:22:59.628Z,14544
2016-07-01T08:23:59.633Z,17728
2016-07-01T08:24:58.985Z,18624
2016-07-01T08:25:58.975Z,22432
2016-07-01T08:26:59.587Z,12608
2016-07-01T08:27:59.577Z,11152
2016-07-01T08:28:58.948Z,13848
2016-07-01T08:30:00.176Z,13612
2016-07-01T08:30:58.939Z,12720
2016-07-01T08:31:59.553Z,12964
2016-07-01T08:32:59.521Z,15572
2016-07-01T08:33:59.516Z,12372
2016-07-01T08:34:59.526Z,13204
2016-07-01T08:35:59.523Z,13948
2016-07-01T08:36:59.516Z,16480
2016-07-01T08:37:58.338Z,13348
2016-07-01T08:38:58.903Z,12252
2016-07-01T08:39:58.870Z,11308
2016-07-01T08:40:59.475Z,10876
2016-07-01T08:41:58.856Z,11544
2016-07-01T08:42:58.844Z,11804
2016-07-01T08:43:59.455Z,11604
2016-07-01T08:44:59.452Z,10964
2016-07-01T08:45:58.846Z,12152
2016-07-01T08:46:59.445Z,12324
2016-07-01T08:47:59.423Z,12552
2016-07-01T08:48:58.227Z,11872
2016-07-01T08:49:58.787Z,11996
2016-07-01T08:50:59.706Z,11392
2016-07-01T08:52:00.044Z,11620
2016-07-01T08:52:59.403Z,12096
2016-07-01T08:53:59.381Z,12344
2016-07-01T08:54:59.965Z,11736
2016-07-01T08:55:59.356Z,12168
2016-07-01T08:56:59.980Z,13032
2016-07-01T08:57:59.959Z,13268
2016-07-01T08:58:59.351Z,14228
2016-07-01T08:59:58.714Z,28672
2016-07-01T09:01:00.021Z,21088
2016-07-01T09:01:59.311Z,28352
2016-07-01T09:02:59.291Z,28352
2016-07-01T09:03:59.913Z,32416
2016-07-01T09:04:58.664Z,22464
2016-07-01T09:05:59.278Z,15864
2016-07-01T09:06:58.660Z,17824
2016-07-01T09:07:58.652Z,16152
2016-07-01T09:08:58.635Z,15072
2016-07-01T09:09:58.633Z,12696
2016-07-01T09:10:58.630Z,11924
2016-07-01T09:11:58.632Z,13064
2016-07-01T09:12:58.619Z,14424
2016-07-01T09:13:57.983Z,17216
2016-07-01T09:14:58.612Z,16800
2016-07-01T09:15:59.201Z,17024
2016-07-01T09:16:58.580Z,16768
2016-07-01T09:17:59.188Z,14360
2016-07-01T09:18:58.587Z,13240
2016-07-01T09:19:59.783Z,10980
2016-07-01T09:20:58.544Z,13076
2016-07-01T09:21:59.163Z,21312
2016-07-01T09:22:59.143Z,17504
2016-07-01T09:23:59.134Z,29856
2016-07-01T09:24:59.155Z,39168
2016-07-01T09:25:59.736Z,13116
2016-07-01T09:26:57.898Z,11172
2016-07-01T09:27:59.740Z,8660
2016-07-01T09:28:59.126Z,9424
2016-07-01T09:29:58.487Z,11772
2016-07-01T09:30:58.462Z,8904
2016-07-01T09:31:59.075Z,8648
2016-07-01T09:32:58.481Z,13452
2016-07-01T09:33:59.074Z,13780
2016-07-01T09:34:59.055Z,17472
2016-07-01T09:35:59.661Z,22784
2016-07-01T09:36:59.036Z,20768
2016-07-01T09:37:58.438Z,28544
2016-07-01T09:38:59.019Z,23136
2016-07-01T09:39:59.012Z,35008
2016-07-01T09:40:58.386Z,16704
2016-07-01T09:41:59.014Z,15152
2016-07-01T09:42:59.012Z,12068
2016-07-01T09:43:58.371Z,19488
2016-07-01T09:44:58.371Z,22240
2016-07-01T09:45:58.364Z,17920
2016-07-01T09:46:58.982Z,15400
2016-07-01T09:47:58.970Z,12696
2016-07-01T09:48:58.334Z,15588
2016-07-01T09:49:58.954Z,27488
2016-07-01T09:50:59.537Z,11624
2016-07-01T09:51:59.546Z,6996
2016-07-01T09:52:58.311Z,6156
2016-07-01T09:53:58.904Z,13072
2016-07-01T09:54:58.293Z,7392
2016-07-01T09:55:57.673Z,5616
2016-07-01T09:56:58.901Z,6960
2016-07-01T09:57:58.312Z,4788
2016-07-01T09:58:59.493Z,8632
2016-07-01T09:59:58.252Z,15396
2016-07-01T10:00:58.854Z,15924
2016-07-01T10:01:58.871Z,4684
2016-07-01T10:02:59.457Z,3068
2016-07-01T10:03:57.621Z,2828
2016-07-01T10:04:58.214Z,3264
2016-07-01T10:05:58.222Z,2984
2016-07-01T10:06:58.195Z,4948
2016-07-01T10:07:58.202Z,12236
2016-07-01T10:08:58.803Z,19648
2016-07-01T10:09:58.185Z,35968
2016-07-01T10:10:58.969Z,29344
2016-07-01T10:11:58.148Z,21024
2016-07-01T10:12:58.765Z,9908
2016-07-01T10:13:58.753Z,7592
2016-07-01T10:14:58.785Z,5568
2016-07-01T10:15:57.517Z,5308
2016-07-01T10:16:58.118Z,5692
2016-07-01T10:17:58.723Z,6132
2016-07-01T10:18:58.143Z,6392
2016-07-01T10:19:58.719Z,8920
2016-07-01T10:20:58.074Z,7680
2016-07-01T10:21:58.713Z,5248
2016-07-01T10:22:58.078Z,6576
2016-07-01T10:23:58.058Z,8096
2016-07-01T10:24:58.089Z,8560
2016-07-01T10:25:58.028Z,9520
2016-07-01T10:26:58.037Z,11124
2016-07-01T10:27:57.421Z,13704
2016-07-01T10:28:58.007Z,14060
2016-07-01T10:29:58.631Z,14428
2016-07-01T10:30:58.014Z,14732
2016-07-01T10:31:58.600Z,15296
2016-07-01T10:32:59.212Z,16544
2016-07-01T10:33:57.984Z,16832
2016-07-01T10:34:59.228Z,17472
2016-07-01T10:35:59.200Z,19520
2016-07-01T10:36:58.590Z,23136
2016-07-01T10:37:57.955Z,24928
2016-07-01T10:38:57.958Z,22848
2016-07-01T10:39:58.575Z,23456
2016-07-01T10:40:57.919Z,21504
2016-07-01T10:41:58.539Z,24448
2016-07-01T10:42:57.912Z,26656
2016-07-01T10:43:57.901Z,25248
2016-07-01T10:44:57.900Z,33056
2016-07-01T10:45:57.874Z,29120
2016-07-01T10:46:57.266Z,28160
2016-07-01T10:47:58.498Z,26624
2016-07-01T10:48:59.098Z,34560
2016-07-01T10:49:57.873Z,39072
2016-07-01T10:50:57.836Z,21920
2016-07-01T10:51:58.456Z,23424
2016-07-01T10:52:58.438Z,25280
2016-07-01T10:53:57.223Z,22656
2016-07-01T10:54:57.819Z,18688
2016-07-01T10:55:58.420Z,23264
2016-07-01T10:56:57.202Z,19968
2016-07-01T10:57:58.395Z,18880
2016-07-01T10:58:58.406Z,21984
2016-07-01T10:59:57.172Z,20192
2016-07-01T11:00:57.847Z,18592
2016-07-01T11:01:58.429Z,18624
2016-07-01T11:02:58.976Z,16416
2016-07-01T11:03:58.382Z,14616
2016-07-01T11:04:58.378Z,12820
2016-07-01T11:05:57.743Z,20960
2016-07-01T11:06:57.728Z,26336
2016-07-01T11:07:58.353Z,18112
2016-07-01T11:08:58.347Z,12232
2016-07-01T11:09:58.326Z,15972
2016-07-01T11:10:57.708Z,18752
2016-07-01T11:11:57.691Z,16864
2016-07-01T11:12:58.964Z,16092
2016-07-01T11:13:57.672Z,17152
2016-07-01T11:14:58.917Z,17376
2016-07-01T11:15:58.280Z,20064
2016-07-01T11:16:57.665Z,26304
2016-07-01T11:17:58.254Z,34016
2016-07-01T11:18:58.277Z,15864
2016-07-01T11:19:58.855Z,9016
2016-07-01T11:20:58.856Z,10056
2016-07-01T11:21:57.048Z,10984
2016-07-01T11:22:57.622Z,8536
2016-07-01T11:23:57.621Z,8384
2016-07-01T11:24:57.584Z,9936
2016-07-01T11:25:58.251Z,9508
2016-07-01T11:26:58.205Z,8912
2016-07-01T11:27:58.184Z,6364
2016-07-01T11:28:58.186Z,4460
2016-07-01T11:29:58.178Z,2888
2016-07-01T11:30:58.186Z,2580
2016-07-01T11:31:58.153Z,2476
2016-07-01T11:32:57.530Z,2492
2016-07-01T11:33:58.144Z,3000
2016-07-01T11:34:58.125Z,5224
2016-07-01T11:35:57.532Z,7076
2016-07-01T11:36:57.498Z,5944
2016-07-01T11:37:58.154Z,5820
2016-07-01T11:38:56.888Z,5976
2016-07-01T11:39:58.137Z,5752
2016-07-01T11:40:58.132Z,6736
2016-07-01T11:41:57.471Z,9764
2016-07-01T11:42:57.452Z,14012
2016-07-01T11:43:58.090Z,18240
2016-07-01T11:44:58.062Z,17600
2016-07-01T11:45:57.448Z,12804
2016-07-01T11:46:58.651Z,9704
2016-07-01T11:47:57.432Z,6796
2016-07-01T11:48:57.437Z,8552
2016-07-01T11:49:58.633Z,9128
2016-07-01T11:50:58.006Z,8976
2016-07-01T11:51:57.419Z,7764
2016-07-01T11:52:56.788Z,8228
2016-07-01T11:53:58.646Z,9120
2016-07-01T11:54:57.994Z,7204
2016-07-01T11:55:57.974Z,7024
2016-07-01T11:56:59.158Z,9804
2016-07-01T11:57:57.976Z,12500
2016-07-01T11:58:57.953Z,9892
2016-07-01T11:59:57.930Z,7968
2016-07-01T12:00:58.547Z,7108
2016-07-01T12:01:57.953Z,6772
2016-07-01T12:02:57.940Z,6608
2016-07-01T12:03:58.538Z,6248
2016-07-01T12:04:58.523Z,5780
2016-07-01T12:05:57.874Z,5628
2016-07-01T12:06:57.273Z,5916
2016-07-01T12:07:57.256Z,6512
2016-07-01T12:08:57.255Z,5692
2016-07-01T12:09:57.273Z,5728
2016-07-01T12:10:58.060Z,6008
2016-07-01T12:11:57.229Z,6708
2016-07-01T12:12:57.260Z,7156
2016-07-01T12:13:57.841Z,6488
2016-07-01T12:14:58.438Z,5876
2016-07-01T12:15:57.801Z,5644
2016-07-01T12:16:58.412Z,5164
2016-07-01T12:17:56.583Z,5188
2016-07-01T12:18:57.789Z,5932
2016-07-01T12:19:58.388Z,6892
2016-07-01T12:20:57.766Z,7784
2016-07-01T12:21:57.748Z,9876
2016-07-01T12:22:57.135Z,13752
2016-07-01T12:23:58.351Z,22496
2016-07-01T12:24:57.109Z,27296
2016-07-01T12:25:57.173Z,72928
2016-07-01T12:26:57.149Z,18048
2016-07-01T12:27:58.299Z,15536
2016-07-01T12:28:57.117Z,15724
2016-07-01T12:29:58.306Z,15640
2016-07-01T12:30:57.074Z,13860
2016-07-01T12:31:58.290Z,13388
2016-07-01T12:32:57.670Z,12644
2016-07-01T12:33:57.670Z,14116
2016-07-01T12:34:57.078Z,20512
2016-07-01T12:35:58.261Z,18112
2016-07-01T12:36:57.624Z,28992
2016-07-01T12:37:57.609Z,36544
2016-07-01T12:38:57.602Z,19680
2016-07-01T12:39:57.613Z,15696
2016-07-01T12:40:56.987Z,12448
2016-07-01T12:41:57.598Z,14272
2016-07-01T12:42:56.957Z,16292
2016-07-01T12:43:56.968Z,16896
2016-07-01T12:44:57.579Z,16800
2016-07-01T12:45:56.963Z,13168
2016-07-01T12:46:57.545Z,10032
2016-07-01T12:47:57.530Z,6820
2016-07-01T12:48:56.306Z,5356
2016-07-01T12:49:56.921Z,5684
2016-07-01T12:50:57.566Z,6076
2016-07-01T12:51:57.500Z,5708
2016-07-01T12:52:57.525Z,5532
2016-07-01T12:53:57.540Z,5256
2016-07-01T12:54:56.890Z,5216
2016-07-01T12:55:58.095Z,5416
2016-07-01T12:56:56.846Z,5624
2016-07-01T12:57:56.845Z,5232
2016-07-01T12:58:58.139Z,4860
2016-07-01T12:59:56.838Z,4804
2016-07-01T13:00:57.455Z,4804
2016-07-01T13:01:58.054Z,4820
2016-07-01T13:02:56.821Z,5252
2016-07-01T13:03:56.814Z,5864
2016-07-01T13:04:57.400Z,7684
2016-07-01T13:05:56.803Z,9276
2016-07-01T13:06:56.787Z,10468
2016-07-01T13:07:57.375Z,12296
2016-07-01T13:08:57.355Z,14628
2016-07-01T13:09:56.100Z,14972
2016-07-01T13:10:56.090Z,13000
2016-07-01T13:11:56.692Z,10392
2016-07-01T13:12:57.324Z,10480
2016-07-01T13:13:56.067Z,9808
2016-07-01T13:14:56.660Z,9228
2016-07-01T13:15:56.655Z,10780
2016-07-01T13:16:57.261Z,7084
2016-07-01T13:17:56.655Z,5364
2016-07-01T13:18:56.634Z,7692
2016-07-01T13:19:56.012Z,9932
2016-07-01T13:20:57.231Z,8100
2016-07-01T13:21:56.003Z,7360
2016-07-01T13:22:56.595Z,10256
2016-07-01T13:23:56.586Z,9420
2016-07-01T13:24:55.999Z,9480
2016-07-01T13:25:56.573Z,9308
2016-07-01T13:26:56.565Z,8628
2016-07-01T13:27:55.941Z,5228
2016-07-01T13:28:56.561Z,6984
2016-07-01T13:29:55.922Z,9824
2016-07-01T13:30:56.532Z,14332
2016-07-01T13:31:57.760Z,7792
2016-07-01T13:32:55.897Z,4928